sensor_id;sensor_type;location;lat;lon;timestamp;P1;durP1;ratioP1;P2;durP2;ratioP2
32186;SDS011;18686;53.084;8.872;2022-12-18T00:00:05;8.85;;;3.47;;
32186;SDS011;18686;53.084;8.872;2022-12-18T00:02:39;11.07;;;3.33;;
32186;SDS011;18686;53.084;8.872;2022-12-18T00:05:08;8.25;;;3.33;;
32186;SDS011;18686;53.084;8.872;2022-12-18T00:07:36;12.05;;;3.80;;
32186;SDS011;18686;53.084;8.872;2022-12-18T00:10:05;8.45;;;3.08;;
32186;SDS011;18686;53.084;8.872;2022-12-18T00:12:34;9.85;;;3.72;;
32186;SDS011;18686;53.084;8.872;2022-12-18T00:15:02;6.32;;;3.20;;
32186;SDS011;18686;53.084;8.872;2022-12-18T00:17:31;7.00;;;3.10;;
32186;SDS011;18686;53.084;8.872;2022-12-18T00:20:01;8.32;;;3.00;;
32186;SDS011;18686;53.084;8.872;2022-12-18T00:22:29;6.15;;;2.70;;
32186;SDS011;18686;53.084;8.872;2022-12-18T00:24:58;8.55;;;2.80;;
32186;SDS011;18686;53.084;8.872;2022-12-18T00:27:26;8.63;;;2.80;;
32186;SDS011;18686;53.084;8.872;2022-12-18T00:29:54;7.75;;;2.50;;
32186;SDS011;18686;53.084;8.872;2022-12-18T00:32:22;6.03;;;2.55;;
32186;SDS011;18686;53.084;8.872;2022-12-18T00:34:50;7.10;;;3.17;;
32186;SDS011;18686;53.084;8.872;2022-12-18T00:37:20;6.47;;;2.75;;
32186;SDS011;18686;53.084;8.872;2022-12-18T00:39:49;4.85;;;2.42;;
32186;SDS011;18686;53.084;8.872;2022-12-18T00:42:18;5.95;;;2.50;;
32186;SDS011;18686;53.084;8.872;2022-12-18T00:45:19;6.88;;;2.60;;
32186;SDS011;18686;53.084;8.872;2022-12-18T00:47:56;5.22;;;2.90;;
32186;SDS011;18686;53.084;8.872;2022-12-18T00:50:24;6.13;;;2.33;;
32186;SDS011;18686;53.084;8.872;2022-12-18T00:52:54;6.78;;;2.58;;
32186;SDS011;18686;53.084;8.872;2022-12-18T00:55:22;4.65;;;2.63;;
32186;SDS011;18686;53.084;8.872;2022-12-18T00:57:50;4.13;;;2.15;;
32186;SDS011;18686;53.084;8.872;2022-12-18T01:00:19;4.35;;;2.40;;
32186;SDS011;18686;53.084;8.872;2022-12-18T01:02:47;4.97;;;2.10;;
32186;SDS011;18686;53.084;8.872;2022-12-18T01:05:16;6.30;;;2.00;;
32186;SDS011;18686;53.084;8.872;2022-12-18T01:07:44;4.22;;;2.30;;
32186;SDS011;18686;53.084;8.872;2022-12-18T01:10:13;5.63;;;2.40;;
32186;SDS011;18686;53.084;8.872;2022-12-18T01:12:42;4.35;;;2.20;;
32186;SDS011;18686;53.084;8.872;2022-12-18T01:15:10;4.47;;;2.35;;
32186;SDS011;18686;53.084;8.872;2022-12-18T01:17:41;4.65;;;1.90;;
32186;SDS011;18686;53.084;8.872;2022-12-18T01:20:10;3.17;;;2.08;;
32186;SDS011;18686;53.084;8.872;2022-12-18T01:22:39;8.68;;;2.80;;
32186;SDS011;18686;53.084;8.872;2022-12-18T01:25:08;6.22;;;3.15;;
32186;SDS011;18686;53.084;8.872;2022-12-18T01:27:38;3.92;;;2.45;;
32186;SDS011;18686;53.084;8.872;2022-12-18T01:30:06;4.45;;;2.60;;
32186;SDS011;18686;53.084;8.872;2022-12-18T01:32:35;4.30;;;2.65;;
32186;SDS011;18686;53.084;8.872;2022-12-18T01:35:04;5.13;;;2.70;;
32186;SDS011;18686;53.084;8.872;2022-12-18T01:37:33;4.65;;;2.72;;
32186;SDS011;18686;53.084;8.872;2022-12-18T01:40:01;3.90;;;2.50;;
32186;SDS011;18686;53.084;8.872;2022-12-18T01:42:29;4.40;;;2.38;;
32186;SDS011;18686;53.084;8.872;2022-12-18T01:45:00;3.70;;;2.33;;
32186;SDS011;18686;53.084;8.872;2022-12-18T01:47:35;3.30;;;2.17;;
32186;SDS011;18686;53.084;8.872;2022-12-18T01:50:07;7.60;;;2.60;;
32186;SDS011;18686;53.084;8.872;2022-12-18T01:52:37;5.53;;;2.58;;
32186;SDS011;18686;53.084;8.872;2022-12-18T01:55:08;2.88;;;2.20;;
32186;SDS011;18686;53.084;8.872;2022-12-18T01:57:37;2.83;;;2.20;;
32186;SDS011;18686;53.084;8.872;2022-12-18T02:00:10;3.95;;;2.28;;
32186;SDS011;18686;53.084;8.872;2022-12-18T02:02:41;2.92;;;2.13;;
32186;SDS011;18686;53.084;8.872;2022-12-18T02:05:12;4.38;;;2.00;;
32186;SDS011;18686;53.084;8.872;2022-12-18T02:07:46;2.78;;;1.98;;
32186;SDS011;18686;53.084;8.872;2022-12-18T02:10:27;4.35;;;2.28;;
32186;SDS011;18686;53.084;8.872;2022-12-18T02:13:03;3.30;;;1.85;;
32186;SDS011;18686;53.084;8.872;2022-12-18T02:15:43;3.00;;;1.80;;
32186;SDS011;18686;53.084;8.872;2022-12-18T02:18:19;2.40;;;2.00;;
32186;SDS011;18686;53.084;8.872;2022-12-18T02:20:52;4.00;;;2.17;;
32186;SDS011;18686;53.084;8.872;2022-12-18T02:23:31;4.10;;;1.67;;
32186;SDS011;18686;53.084;8.872;2022-12-18T02:26:13;4.40;;;1.80;;
32186;SDS011;18686;53.084;8.872;2022-12-18T02:28:49;4.85;;;1.73;;
32186;SDS011;18686;53.084;8.872;2022-12-18T02:31:21;3.88;;;1.95;;
32186;SDS011;18686;53.084;8.872;2022-12-18T02:33:53;2.60;;;1.80;;
32186;SDS011;18686;53.084;8.872;2022-12-18T02:36:23;3.60;;;1.88;;
32186;SDS011;18686;53.084;8.872;2022-12-18T02:38:55;5.20;;;1.77;;
32186;SDS011;18686;53.084;8.872;2022-12-18T02:41:26;7.20;;;1.80;;
32186;SDS011;18686;53.084;8.872;2022-12-18T02:43:59;1.77;;;1.40;;
32186;SDS011;18686;53.084;8.872;2022-12-18T02:46:31;1.90;;;1.33;;
32186;SDS011;18686;53.084;8.872;2022-12-18T02:49:12;2.92;;;1.70;;
32186;SDS011;18686;53.084;8.872;2022-12-18T02:51:50;6.97;;;1.40;;
32186;SDS011;18686;53.084;8.872;2022-12-18T02:54:29;3.47;;;1.40;;
32186;SDS011;18686;53.084;8.872;2022-12-18T02:57:11;1.58;;;1.35;;
32186;SDS011;18686;53.084;8.872;2022-12-18T02:59:46;1.85;;;1.20;;
32186;SDS011;18686;53.084;8.872;2022-12-18T03:02:23;2.55;;;1.77;;
32186;SDS011;18686;53.084;8.872;2022-12-18T03:04:58;1.50;;;1.30;;
32186;SDS011;18686;53.084;8.872;2022-12-18T03:07:37;2.03;;;1.40;;
32186;SDS011;18686;53.084;8.872;2022-12-18T03:10:13;2.50;;;1.45;;
32186;SDS011;18686;53.084;8.872;2022-12-18T03:12:46;3.47;;;1.55;;
32186;SDS011;18686;53.084;8.872;2022-12-18T03:15:21;2.08;;;1.30;;
32186;SDS011;18686;53.084;8.872;2022-12-18T03:17:59;1.60;;;1.50;;
32186;SDS011;18686;53.084;8.872;2022-12-18T03:20:31;1.95;;;1.33;;
32186;SDS011;18686;53.084;8.872;2022-12-18T03:23:04;1.75;;;1.40;;
32186;SDS011;18686;53.084;8.872;2022-12-18T03:25:37;2.15;;;1.05;;
32186;SDS011;18686;53.084;8.872;2022-12-18T03:28:12;1.98;;;1.30;;
32186;SDS011;18686;53.084;8.872;2022-12-18T03:30:43;1.45;;;1.35;;
32186;SDS011;18686;53.084;8.872;2022-12-18T03:33:15;2.20;;;1.30;;
32186;SDS011;18686;53.084;8.872;2022-12-18T03:35:49;1.45;;;1.20;;
32186;SDS011;18686;53.084;8.872;2022-12-18T03:38:18;2.03;;;1.30;;
32186;SDS011;18686;53.084;8.872;2022-12-18T03:40:53;1.38;;;1.27;;
32186;SDS011;18686;53.084;8.872;2022-12-18T03:43:33;1.10;;;1.00;;
32186;SDS011;18686;53.084;8.872;2022-12-18T03:46:11;1.80;;;1.23;;
32186;SDS011;18686;53.084;8.872;2022-12-18T03:48:46;1.20;;;1.10;;
32186;SDS011;18686;53.084;8.872;2022-12-18T03:51:22;1.17;;;1.08;;
32186;SDS011;18686;53.084;8.872;2022-12-18T03:53:55;1.88;;;1.00;;
32186;SDS011;18686;53.084;8.872;2022-12-18T03:56:32;1.10;;;1.00;;
32186;SDS011;18686;53.084;8.872;2022-12-18T03:59:06;1.15;;;1.05;;
32186;SDS011;18686;53.084;8.872;2022-12-18T04:01:38;2.08;;;1.10;;
32186;SDS011;18686;53.084;8.872;2022-12-18T04:04:12;1.30;;;1.10;;
32186;SDS011;18686;53.084;8.872;2022-12-18T04:06:42;3.75;;;1.20;;
32186;SDS011;18686;53.084;8.872;2022-12-18T04:09:13;2.00;;;1.10;;
32186;SDS011;18686;53.084;8.872;2022-12-18T04:11:45;1.27;;;1.00;;
32186;SDS011;18686;53.084;8.872;2022-12-18T04:14:16;1.20;;;1.05;;
32186;SDS011;18686;53.084;8.872;2022-12-18T04:16:49;2.05;;;1.23;;
32186;SDS011;18686;53.084;8.872;2022-12-18T04:19:21;1.85;;;1.10;;
32186;SDS011;18686;53.084;8.872;2022-12-18T04:21:51;1.25;;;0.90;;
32186;SDS011;18686;53.084;8.872;2022-12-18T04:24:19;1.25;;;1.15;;
32186;SDS011;18686;53.084;8.872;2022-12-18T04:26:59;4.43;;;1.10;;
32186;SDS011;18686;53.084;8.872;2022-12-18T04:29:33;1.30;;;1.20;;
32186;SDS011;18686;53.084;8.872;2022-12-18T04:32:01;2.63;;;1.00;;
32186;SDS011;18686;53.084;8.872;2022-12-18T04:34:31;1.13;;;1.02;;
32186;SDS011;18686;53.084;8.872;2022-12-18T04:36:59;1.20;;;1.00;;
32186;SDS011;18686;53.084;8.872;2022-12-18T04:39:28;1.20;;;1.00;;
32186;SDS011;18686;53.084;8.872;2022-12-18T04:42:03;0.95;;;0.88;;
32186;SDS011;18686;53.084;8.872;2022-12-18T04:44:34;0.88;;;0.88;;
32186;SDS011;18686;53.084;8.872;2022-12-18T04:47:03;1.88;;;0.80;;
32186;SDS011;18686;53.084;8.872;2022-12-18T04:49:31;1.05;;;0.82;;
32186;SDS011;18686;53.084;8.872;2022-12-18T04:52:00;1.80;;;1.08;;
32186;SDS011;18686;53.084;8.872;2022-12-18T04:54:28;1.10;;;0.93;;
32186;SDS011;18686;53.084;8.872;2022-12-18T04:56:57;1.08;;;0.77;;
32186;SDS011;18686;53.084;8.872;2022-12-18T04:59:25;1.27;;;0.98;;
32186;SDS011;18686;53.084;8.872;2022-12-18T05:01:55;1.00;;;0.82;;
32186;SDS011;18686;53.084;8.872;2022-12-18T05:04:24;3.33;;;0.93;;
32186;SDS011;18686;53.084;8.872;2022-12-18T05:06:52;2.63;;;0.90;;
32186;SDS011;18686;53.084;8.872;2022-12-18T05:09:20;3.50;;;1.13;;
32186;SDS011;18686;53.084;8.872;2022-12-18T05:11:48;1.88;;;1.30;;
32186;SDS011;18686;53.084;8.872;2022-12-18T05:14:17;2.15;;;1.65;;
32186;SDS011;18686;53.084;8.872;2022-12-18T05:16:45;3.30;;;1.80;;
32186;SDS011;18686;53.084;8.872;2022-12-18T05:19:15;3.30;;;1.52;;
32186;SDS011;18686;53.084;8.872;2022-12-18T05:21:43;3.97;;;1.23;;
32186;SDS011;18686;53.084;8.872;2022-12-18T05:24:12;2.33;;;1.40;;
32186;SDS011;18686;53.084;8.872;2022-12-18T05:26:41;3.55;;;1.48;;
32186;SDS011;18686;53.084;8.872;2022-12-18T05:29:09;2.30;;;1.30;;
32186;SDS011;18686;53.084;8.872;2022-12-18T05:31:39;4.95;;;1.40;;
32186;SDS011;18686;53.084;8.872;2022-12-18T05:34:08;2.13;;;1.27;;
32186;SDS011;18686;53.084;8.872;2022-12-18T05:36:39;2.05;;;1.08;;
32186;SDS011;18686;53.084;8.872;2022-12-18T05:39:08;1.65;;;1.30;;
32186;SDS011;18686;53.084;8.872;2022-12-18T05:41:36;3.03;;;1.23;;
32186;SDS011;18686;53.084;8.872;2022-12-18T05:44:04;2.58;;;1.20;;
32186;SDS011;18686;53.084;8.872;2022-12-18T05:46:33;3.75;;;1.13;;
32186;SDS011;18686;53.084;8.872;2022-12-18T05:49:01;2.53;;;1.20;;
32186;SDS011;18686;53.084;8.872;2022-12-18T05:51:29;1.63;;;1.10;;
32186;SDS011;18686;53.084;8.872;2022-12-18T05:53:59;1.75;;;1.00;;
32186;SDS011;18686;53.084;8.872;2022-12-18T05:56:27;1.63;;;1.17;;
32186;SDS011;18686;53.084;8.872;2022-12-18T05:58:55;1.42;;;0.85;;
32186;SDS011;18686;53.084;8.872;2022-12-18T06:01:24;1.90;;;1.00;;
32186;SDS011;18686;53.084;8.872;2022-12-18T06:03:54;2.00;;;1.33;;
32186;SDS011;18686;53.084;8.872;2022-12-18T06:06:23;1.10;;;0.77;;
32186;SDS011;18686;53.084;8.872;2022-12-18T06:08:54;1.25;;;1.00;;
32186;SDS011;18686;53.084;8.872;2022-12-18T06:11:24;1.05;;;0.80;;
32186;SDS011;18686;53.084;8.872;2022-12-18T06:13:54;0.80;;;0.80;;
32186;SDS011;18686;53.084;8.872;2022-12-18T06:16:26;1.13;;;1.02;;
32186;SDS011;18686;53.084;8.872;2022-12-18T06:18:56;1.30;;;0.98;;
32186;SDS011;18686;53.084;8.872;2022-12-18T06:21:25;2.05;;;0.80;;
32186;SDS011;18686;53.084;8.872;2022-12-18T06:23:53;3.63;;;0.90;;
32186;SDS011;18686;53.084;8.872;2022-12-18T06:26:22;2.95;;;0.80;;
32186;SDS011;18686;53.084;8.872;2022-12-18T06:28:54;0.80;;;0.80;;
32186;SDS011;18686;53.084;8.872;2022-12-18T06:31:22;6.45;;;1.00;;
32186;SDS011;18686;53.084;8.872;2022-12-18T06:33:51;1.60;;;0.75;;
32186;SDS011;18686;53.084;8.872;2022-12-18T06:36:19;1.85;;;0.82;;
32186;SDS011;18686;53.084;8.872;2022-12-18T06:38:47;0.90;;;0.70;;
32186;SDS011;18686;53.084;8.872;2022-12-18T06:41:16;3.80;;;0.80;;
32186;SDS011;18686;53.084;8.872;2022-12-18T06:43:47;3.67;;;0.88;;
32186;SDS011;18686;53.084;8.872;2022-12-18T06:46:15;1.02;;;0.80;;
32186;SDS011;18686;53.084;8.872;2022-12-18T06:48:46;1.52;;;0.80;;
32186;SDS011;18686;53.084;8.872;2022-12-18T06:51:16;1.33;;;0.70;;
32186;SDS011;18686;53.084;8.872;2022-12-18T06:53:45;2.05;;;0.85;;
32186;SDS011;18686;53.084;8.872;2022-12-18T06:56:13;0.73;;;0.47;;
32186;SDS011;18686;53.084;8.872;2022-12-18T06:58:41;1.40;;;0.73;;
32186;SDS011;18686;53.084;8.872;2022-12-18T07:01:12;0.73;;;0.70;;
32186;SDS011;18686;53.084;8.872;2022-12-18T07:03:41;1.17;;;0.65;;
32186;SDS011;18686;53.084;8.872;2022-12-18T07:06:14;0.57;;;0.50;;
32186;SDS011;18686;53.084;8.872;2022-12-18T07:08:43;0.70;;;0.50;;
32186;SDS011;18686;53.084;8.872;2022-12-18T07:11:11;0.70;;;0.60;;
32186;SDS011;18686;53.084;8.872;2022-12-18T07:13:40;0.50;;;0.50;;
32186;SDS011;18686;53.084;8.872;2022-12-18T07:16:09;1.88;;;0.57;;
32186;SDS011;18686;53.084;8.872;2022-12-18T07:18:49;0.93;;;0.60;;
32186;SDS011;18686;53.084;8.872;2022-12-18T07:21:18;1.50;;;0.50;;
32186;SDS011;18686;53.084;8.872;2022-12-18T07:23:48;0.52;;;0.50;;
32186;SDS011;18686;53.084;8.872;2022-12-18T07:26:17;0.57;;;0.50;;
32186;SDS011;18686;53.084;8.872;2022-12-18T07:28:46;1.00;;;0.57;;
32186;SDS011;18686;53.084;8.872;2022-12-18T07:31:15;0.50;;;0.50;;
32186;SDS011;18686;53.084;8.872;2022-12-18T07:33:47;0.63;;;0.40;;
32186;SDS011;18686;53.084;8.872;2022-12-18T07:36:17;0.63;;;0.63;;
32186;SDS011;18686;53.084;8.872;2022-12-18T07:38:53;1.13;;;0.50;;
32186;SDS011;18686;53.084;8.872;2022-12-18T07:41:22;0.82;;;0.50;;
32186;SDS011;18686;53.084;8.872;2022-12-18T07:43:50;0.47;;;0.47;;
32186;SDS011;18686;53.084;8.872;2022-12-18T07:46:19;1.27;;;0.43;;
32186;SDS011;18686;53.084;8.872;2022-12-18T07:48:48;1.48;;;0.55;;
32186;SDS011;18686;53.084;8.872;2022-12-18T07:51:17;0.40;;;0.40;;
32186;SDS011;18686;53.084;8.872;2022-12-18T07:53:46;0.70;;;0.60;;
32186;SDS011;18686;53.084;8.872;2022-12-18T07:56:18;2.05;;;0.60;;
32186;SDS011;18686;53.084;8.872;2022-12-18T07:58:56;0.50;;;0.50;;
32186;SDS011;18686;53.084;8.872;2022-12-18T08:01:24;1.85;;;0.65;;
32186;SDS011;18686;53.084;8.872;2022-12-18T08:03:54;0.75;;;0.75;;
32186;SDS011;18686;53.084;8.872;2022-12-18T08:06:22;1.10;;;0.60;;
32186;SDS011;18686;53.084;8.872;2022-12-18T08:08:51;0.80;;;0.60;;
32186;SDS011;18686;53.084;8.872;2022-12-18T08:11:21;1.30;;;0.70;;
32186;SDS011;18686;53.084;8.872;2022-12-18T08:13:51;0.93;;;0.60;;
32186;SDS011;18686;53.084;8.872;2022-12-18T08:16:19;0.57;;;0.40;;
32186;SDS011;18686;53.084;8.872;2022-12-18T08:18:48;2.85;;;0.55;;
32186;SDS011;18686;53.084;8.872;2022-12-18T08:21:20;0.55;;;0.50;;
32186;SDS011;18686;53.084;8.872;2022-12-18T08:23:50;1.75;;;0.50;;
32186;SDS011;18686;53.084;8.872;2022-12-18T08:26:20;1.02;;;0.60;;
32186;SDS011;18686;53.084;8.872;2022-12-18T08:28:48;0.70;;;0.50;;
32186;SDS011;18686;53.084;8.872;2022-12-18T08:31:18;2.67;;;0.60;;
32186;SDS011;18686;53.084;8.872;2022-12-18T08:33:48;0.60;;;0.40;;
32186;SDS011;18686;53.084;8.872;2022-12-18T08:36:17;0.45;;;0.45;;
32186;SDS011;18686;53.084;8.872;2022-12-18T08:38:47;0.55;;;0.55;;
32186;SDS011;18686;53.084;8.872;2022-12-18T08:41:16;0.52;;;0.50;;
32186;SDS011;18686;53.084;8.872;2022-12-18T08:43:44;1.67;;;0.55;;
32186;SDS011;18686;53.084;8.872;2022-12-18T08:46:34;0.40;;;0.40;;
32186;SDS011;18686;53.084;8.872;2022-12-18T08:49:04;0.57;;;0.30;;
32186;SDS011;18686;53.084;8.872;2022-12-18T08:51:34;0.47;;;0.30;;
32186;SDS011;18686;53.084;8.872;2022-12-18T08:54:03;0.80;;;0.60;;
32186;SDS011;18686;53.084;8.872;2022-12-18T08:56:32;0.30;;;0.30;;
32186;SDS011;18686;53.084;8.872;2022-12-18T08:59:00;0.85;;;0.50;;
32186;SDS011;18686;53.084;8.872;2022-12-18T09:01:30;0.55;;;0.25;;
32186;SDS011;18686;53.084;8.872;2022-12-18T09:03:59;0.77;;;0.50;;
32186;SDS011;18686;53.084;8.872;2022-12-18T09:06:27;0.28;;;0.28;;
32186;SDS011;18686;53.084;8.872;2022-12-18T09:08:57;5.97;;;0.40;;
32186;SDS011;18686;53.084;8.872;2022-12-18T09:11:26;0.95;;;0.40;;
32186;SDS011;18686;53.084;8.872;2022-12-18T09:13:56;1.88;;;0.30;;
32186;SDS011;18686;53.084;8.872;2022-12-18T09:16:25;1.77;;;0.50;;
32186;SDS011;18686;53.084;8.872;2022-12-18T09:18:58;0.30;;;0.30;;
32186;SDS011;18686;53.084;8.872;2022-12-18T09:21:28;0.68;;;0.32;;
32186;SDS011;18686;53.084;8.872;2022-12-18T09:24:01;0.47;;;0.45;;
32186;SDS011;18686;53.084;8.872;2022-12-18T09:26:30;0.93;;;0.47;;
32186;SDS011;18686;53.084;8.872;2022-12-18T09:28:58;1.38;;;0.40;;
32186;SDS011;18686;53.084;8.872;2022-12-18T09:31:27;1.15;;;0.40;;
32186;SDS011;18686;53.084;8.872;2022-12-18T09:33:55;0.70;;;0.40;;
32186;SDS011;18686;53.084;8.872;2022-12-18T09:36:23;2.70;;;0.43;;
32186;SDS011;18686;53.084;8.872;2022-12-18T09:38:51;1.35;;;0.30;;
32186;SDS011;18686;53.084;8.872;2022-12-18T09:41:27;11.52;;;7.82;;
32186;SDS011;18686;53.084;8.872;2022-12-18T09:44:13;12.43;;;8.65;;
32186;SDS011;18686;53.084;8.872;2022-12-18T09:47:10;24.60;;;9.05;;
32186;SDS011;18686;53.084;8.872;2022-12-18T09:49:43;19.65;;;9.48;;
32186;SDS011;18686;53.084;8.872;2022-12-18T09:52:14;20.77;;;8.85;;
32186;SDS011;18686;53.084;8.872;2022-12-18T09:54:47;20.90;;;8.57;;
32186;SDS011;18686;53.084;8.872;2022-12-18T09:57:23;21.40;;;7.15;;
32186;SDS011;18686;53.084;8.872;2022-12-18T09:59:53;15.55;;;7.10;;
32186;SDS011;18686;53.084;8.872;2022-12-18T10:02:24;12.52;;;6.65;;
32186;SDS011;18686;53.084;8.872;2022-12-18T10:04:57;12.48;;;6.43;;
32186;SDS011;18686;53.084;8.872;2022-12-18T10:07:38;13.02;;;6.13;;
32186;SDS011;18686;53.084;8.872;2022-12-18T10:10:23;11.70;;;5.22;;
32186;SDS011;18686;53.084;8.872;2022-12-18T10:13:02;14.55;;;5.20;;
32186;SDS011;18686;53.084;8.872;2022-12-18T10:15:39;7.40;;;4.85;;
32186;SDS011;18686;53.084;8.872;2022-12-18T10:18:14;10.63;;;4.55;;
32186;SDS011;18686;53.084;8.872;2022-12-18T10:20:51;7.15;;;4.13;;
32186;SDS011;18686;53.084;8.872;2022-12-18T10:23:23;9.23;;;4.28;;
32186;SDS011;18686;53.084;8.872;2022-12-18T10:25:57;6.38;;;3.60;;
32186;SDS011;18686;53.084;8.872;2022-12-18T10:28:31;8.00;;;3.55;;
32186;SDS011;18686;53.084;8.872;2022-12-18T10:31:04;10.93;;;4.00;;
32186;SDS011;18686;53.084;8.872;2022-12-18T10:33:33;5.10;;;3.25;;
32186;SDS011;18686;53.084;8.872;2022-12-18T10:36:02;4.53;;;3.00;;
32186;SDS011;18686;53.084;8.872;2022-12-18T10:38:32;7.10;;;3.38;;
32186;SDS011;18686;53.084;8.872;2022-12-18T10:41:01;4.72;;;3.22;;
32186;SDS011;18686;53.084;8.872;2022-12-18T10:43:32;4.78;;;2.40;;
32186;SDS011;18686;53.084;8.872;2022-12-18T10:46:11;4.00;;;2.10;;
32186;SDS011;18686;53.084;8.872;2022-12-18T10:48:48;9.02;;;2.33;;
32186;SDS011;18686;53.084;8.872;2022-12-18T10:51:20;3.65;;;2.33;;
32186;SDS011;18686;53.084;8.872;2022-12-18T10:53:52;6.60;;;2.20;;
32186;SDS011;18686;53.084;8.872;2022-12-18T10:56:24;2.88;;;1.60;;
32186;SDS011;18686;53.084;8.872;2022-12-18T10:58:59;3.00;;;1.95;;
32186;SDS011;18686;53.084;8.872;2022-12-18T11:01:44;2.92;;;1.60;;
32186;SDS011;18686;53.084;8.872;2022-12-18T11:04:16;7.40;;;3.57;;
32186;SDS011;18686;53.084;8.872;2022-12-18T11:06:56;4.55;;;2.72;;
32186;SDS011;18686;53.084;8.872;2022-12-18T11:09:27;7.80;;;2.78;;
32186;SDS011;18686;53.084;8.872;2022-12-18T11:11:57;12.30;;;3.72;;
32186;SDS011;18686;53.084;8.872;2022-12-18T11:14:29;15.25;;;4.43;;
32186;SDS011;18686;53.084;8.872;2022-12-18T11:17:00;12.40;;;4.20;;
32186;SDS011;18686;53.084;8.872;2022-12-18T11:19:52;12.68;;;4.70;;
32186;SDS011;18686;53.084;8.872;2022-12-18T11:22:23;9.75;;;3.85;;
32186;SDS011;18686;53.084;8.872;2022-12-18T11:24:55;8.35;;;4.03;;
32186;SDS011;18686;53.084;8.872;2022-12-18T11:27:49;10.27;;;3.53;;
32186;SDS011;18686;53.084;8.872;2022-12-18T11:32:54;9.40;;;3.83;;
32186;SDS011;18686;53.084;8.872;2022-12-18T11:35:30;10.13;;;3.67;;
32186;SDS011;18686;53.084;8.872;2022-12-18T11:38:11;9.43;;;3.88;;
32186;SDS011;18686;53.084;8.872;2022-12-18T11:40:47;8.43;;;3.33;;
32186;SDS011;18686;53.084;8.872;2022-12-18T11:43:21;9.13;;;3.20;;
32186;SDS011;18686;53.084;8.872;2022-12-18T11:45:55;8.68;;;2.22;;
32186;SDS011;18686;53.084;8.872;2022-12-18T11:48:29;8.40;;;2.78;;
32186;SDS011;18686;53.084;8.872;2022-12-18T11:51:01;12.15;;;2.70;;
32186;SDS011;18686;53.084;8.872;2022-12-18T11:53:35;10.35;;;3.03;;
32186;SDS011;18686;53.084;8.872;2022-12-18T11:56:07;9.02;;;2.58;;
32186;SDS011;18686;53.084;8.872;2022-12-18T11:58:50;6.30;;;3.08;;
32186;SDS011;18686;53.084;8.872;2022-12-18T12:01:33;8.05;;;3.00;;
32186;SDS011;18686;53.084;8.872;2022-12-18T12:04:20;6.40;;;2.97;;
32186;SDS011;18686;53.084;8.872;2022-12-18T12:07:14;9.38;;;3.03;;
32186;SDS011;18686;53.084;8.872;2022-12-18T12:09:53;6.70;;;2.78;;
32186;SDS011;18686;53.084;8.872;2022-12-18T12:12:32;8.70;;;2.63;;
32186;SDS011;18686;53.084;8.872;2022-12-18T12:15:17;4.35;;;2.53;;
32186;SDS011;18686;53.084;8.872;2022-12-18T12:17:54;6.05;;;2.50;;
32186;SDS011;18686;53.084;8.872;2022-12-18T12:20:37;3.85;;;2.35;;
32186;SDS011;18686;53.084;8.872;2022-12-18T12:23:14;4.15;;;2.42;;
32186;SDS011;18686;53.084;8.872;2022-12-18T12:25:55;3.58;;;1.70;;
32186;SDS011;18686;53.084;8.872;2022-12-18T12:28:33;4.85;;;2.05;;
32186;SDS011;18686;53.084;8.872;2022-12-18T12:31:22;4.55;;;1.80;;
32186;SDS011;18686;53.084;8.872;2022-12-18T12:34:04;7.32;;;3.17;;
32186;SDS011;18686;53.084;8.872;2022-12-18T12:36:40;5.78;;;2.30;;
32186;SDS011;18686;53.084;8.872;2022-12-18T12:39:20;6.20;;;2.35;;
32186;SDS011;18686;53.084;8.872;2022-12-18T12:41:51;5.07;;;2.17;;
32186;SDS011;18686;53.084;8.872;2022-12-18T12:44:39;4.68;;;2.20;;
32186;SDS011;18686;53.084;8.872;2022-12-18T12:47:14;7.40;;;2.15;;
32186;SDS011;18686;53.084;8.872;2022-12-18T12:49:48;4.10;;;1.83;;
32186;SDS011;18686;53.084;8.872;2022-12-18T12:52:21;5.82;;;1.75;;
32186;SDS011;18686;53.084;8.872;2022-12-18T12:54:58;4.82;;;1.92;;
32186;SDS011;18686;53.084;8.872;2022-12-18T12:57:30;3.03;;;1.80;;
32186;SDS011;18686;53.084;8.872;2022-12-18T13:00:04;5.68;;;1.92;;
32186;SDS011;18686;53.084;8.872;2022-12-18T13:02:39;4.53;;;1.40;;
32186;SDS011;18686;53.084;8.872;2022-12-18T13:05:18;3.15;;;1.65;;
32186;SDS011;18686;53.084;8.872;2022-12-18T13:08:12;4.40;;;1.40;;
32186;SDS011;18686;53.084;8.872;2022-12-18T13:10:53;3.08;;;1.73;;
32186;SDS011;18686;53.084;8.872;2022-12-18T13:13:48;2.42;;;1.70;;
32186;SDS011;18686;53.084;8.872;2022-12-18T13:16:18;3.17;;;1.30;;
32186;SDS011;18686;53.084;8.872;2022-12-18T13:18:48;1.95;;;1.02;;
32186;SDS011;18686;53.084;8.872;2022-12-18T13:21:21;2.20;;;1.10;;
32186;SDS011;18686;53.084;8.872;2022-12-18T13:23:53;2.13;;;1.10;;
32186;SDS011;18686;53.084;8.872;2022-12-18T13:26:32;1.52;;;1.00;;
32186;SDS011;18686;53.084;8.872;2022-12-18T13:29:01;3.60;;;1.17;;
32186;SDS011;18686;53.084;8.872;2022-12-18T13:34:27;4.90;;;1.20;;
32186;SDS011;18686;53.084;8.872;2022-12-18T13:40:01;1.65;;;0.80;;
32186;SDS011;18686;53.084;8.872;2022-12-18T13:42:39;2.80;;;0.90;;
32186;SDS011;18686;53.084;8.872;2022-12-18T13:45:42;10.85;;;1.27;;
32186;SDS011;18686;53.084;8.872;2022-12-18T13:48:17;10.27;;;1.40;;
32186;SDS011;18686;53.084;8.872;2022-12-18T13:50:55;4.63;;;1.38;;
32186;SDS011;18686;53.084;8.872;2022-12-18T13:53:27;6.47;;;1.60;;
32186;SDS011;18686;53.084;8.872;2022-12-18T13:55:59;3.78;;;1.40;;
32186;SDS011;18686;53.084;8.872;2022-12-18T13:58:28;4.63;;;1.10;;
32186;SDS011;18686;53.084;8.872;2022-12-18T14:00:56;3.33;;;1.10;;
32186;SDS011;18686;53.084;8.872;2022-12-18T14:03:26;4.50;;;1.30;;
32186;SDS011;18686;53.084;8.872;2022-12-18T14:05:59;3.65;;;1.13;;
32186;SDS011;18686;53.084;8.872;2022-12-18T14:08:37;4.05;;;1.52;;
32186;SDS011;18686;53.084;8.872;2022-12-18T14:11:17;9.30;;;1.70;;
32186;SDS011;18686;53.084;8.872;2022-12-18T14:13:48;6.10;;;1.33;;
32186;SDS011;18686;53.084;8.872;2022-12-18T14:16:16;6.13;;;1.48;;
32186;SDS011;18686;53.084;8.872;2022-12-18T14:18:45;3.03;;;1.35;;
32186;SDS011;18686;53.084;8.872;2022-12-18T14:21:23;4.95;;;1.33;;
32186;SDS011;18686;53.084;8.872;2022-12-18T14:24:03;5.80;;;1.40;;
32186;SDS011;18686;53.084;8.872;2022-12-18T14:26:34;7.10;;;1.40;;
32186;SDS011;18686;53.084;8.872;2022-12-18T14:29:18;2.13;;;1.02;;
32186;SDS011;18686;53.084;8.872;2022-12-18T14:32:07;3.63;;;1.23;;
32186;SDS011;18686;53.084;8.872;2022-12-18T14:34:43;4.13;;;1.50;;
32186;SDS011;18686;53.084;8.872;2022-12-18T14:37:12;3.40;;;1.10;;
32186;SDS011;18686;53.084;8.872;2022-12-18T14:39:51;2.67;;;0.90;;
32186;SDS011;18686;53.084;8.872;2022-12-18T14:42:23;2.17;;;1.23;;
32186;SDS011;18686;53.084;8.872;2022-12-18T14:48:14;3.88;;;1.42;;
32186;SDS011;18686;53.084;8.872;2022-12-18T14:50:59;1.55;;;0.80;;
32186;SDS011;18686;53.084;8.872;2022-12-18T14:53:32;1.35;;;1.00;;
32186;SDS011;18686;53.084;8.872;2022-12-18T14:56:13;3.97;;;1.00;;
32186;SDS011;18686;53.084;8.872;2022-12-18T14:58:46;2.05;;;1.10;;
32186;SDS011;18686;53.084;8.872;2022-12-18T15:01:23;3.97;;;2.20;;
32186;SDS011;18686;53.084;8.872;2022-12-18T15:03:53;3.25;;;1.70;;
32186;SDS011;18686;53.084;8.872;2022-12-18T15:06:24;4.53;;;1.60;;
32186;SDS011;18686;53.084;8.872;2022-12-18T15:08:55;4.25;;;1.92;;
32186;SDS011;18686;53.084;8.872;2022-12-18T15:11:27;2.60;;;1.40;;
32186;SDS011;18686;53.084;8.872;2022-12-18T15:16:57;4.68;;;1.90;;
32186;SDS011;18686;53.084;8.872;2022-12-18T15:19:32;3.15;;;1.30;;
32186;SDS011;18686;53.084;8.872;2022-12-18T15:22:14;1.63;;;1.20;;
32186;SDS011;18686;53.084;8.872;2022-12-18T15:24:47;1.55;;;1.23;;
32186;SDS011;18686;53.084;8.872;2022-12-18T15:27:25;4.38;;;1.67;;
32186;SDS011;18686;53.084;8.872;2022-12-18T15:32:50;1.55;;;1.00;;
32186;SDS011;18686;53.084;8.872;2022-12-18T15:35:21;2.17;;;1.30;;